Time;durP1;ratioP1;P1;durP2;ratioP2;P2;SDS_P1;SDS_P2;PMS_P1;PMS_P2;Temp;Humidity;BMP_temperature;BMP_pressure;BME280_temperature;BME280_humidity;BME280_pressure;Samples;Min_cycle;Max_cycle;Signal;HPM_P1;HPM_P2
2021/05/31 00:00:08;;;;;;;7.30;2.00;;;13.00;72.30;;;;;;5024826;28;20113;-64
2021/05/31 00:02:35;;;;;;;6.68;2.40;;;13.20;71.20;;;;;;5024869;28;20018;-64
2021/05/31 00:05:03;;;;;;;8.57;2.50;;;13.30;71.50;;;;;;5024673;28;20029;-64
2021/05/31 00:07:30;;;;;;;8.50;2.17;;;13.40;72.20;;;;;;5025123;28;20068;-66
2021/05/31 00:09:57;;;;;;;5.43;2.63;;;13.60;69.90;;;;;;5024860;28;20122;-65
2021/05/31 00:12:24;;;;;;;5.82;2.00;;;13.80;70.40;;;;;;5025482;28;20025;-65
2021/05/31 00:14:51;;;;;;;4.95;1.50;;;13.90;69.10;;;;;;5027841;28;20162;-64
2021/05/31 00:17:18;;;;;;;5.47;1.95;;;14.10;68.20;;;;;;5029263;28;20025;-65
2021/05/31 00:19:47;;;;;;;5.70;1.55;;;14.20;68.90;;;;;;5027018;28;20049;-65
2021/05/31 00:22:14;;;;;;;14.93;9.00;;;14.20;67.70;;;;;;5028671;28;20017;-64
2021/05/31 00:24:40;;;;;;;7.68;2.65;;;14.20;68.70;;;;;;4329342;28;10000636;-65
2021/05/31 00:27:08;;;;;;;9.10;2.88;;;14.40;68.00;;;;;;5024995;28;20087;-64
2021/05/31 00:29:35;;;;;;;11.30;2.38;;;14.50;66.90;;;;;;5025200;28;20131;-67
2021/05/31 00:32:02;;;;;;;8.07;2.05;;;14.60;66.80;;;;;;5025713;28;20020;-65
2021/05/31 00:34:29;;;;;;;12.80;2.53;;;14.70;66.50;;;;;;5023081;28;20434;-65
2021/05/31 00:36:56;;;;;;;7.03;2.42;;;15.00;66.00;;;;;;5024200;28;20104;-65
2021/05/31 00:39:23;;;;;;;6.57;2.10;;;15.10;66.70;;;;;;5025217;28;20014;-67
2021/05/31 00:41:52;;;;;;;6.70;2.90;;;15.20;66.70;;;;;;5024891;28;20104;-65
2021/05/31 00:44:21;;;;;;;5.93;2.40;;;15.40;66.30;;;;;;5026390;28;20029;-66
2021/05/31 00:46:49;;;;;;;12.13;2.67;;;15.50;66.30;;;;;;5024964;28;20031;-65
2021/05/31 00:49:24;;;;;;;5.35;2.42;;;15.60;65.30;;;;;;5025067;28;20592;-67
2021/05/31 00:51:51;;;;;;;4.97;2.20;;;15.60;64.10;;;;;;5023960;28;20017;-67
2021/05/31 00:54:22;;;;;;;7.88;2.33;;;15.70;65.20;;;;;;5025325;28;20021;-63
2021/05/31 00:56:50;;;;;;;9.23;2.20;;;15.90;63.80;;;;;;5023336;28;20044;-64
2021/05/31 00:59:17;;;;;;;2.90;2.38;;;15.90;62.70;;;;;;5024249;28;20014;-65
2021/05/31 01:01:46;;;;;;;5.28;1.70;;;16.00;63.30;;;;;;5013705;28;20025;-64
2021/05/31 01:04:13;;;;;;;3.55;1.83;;;16.20;62.20;;;;;;5017431;28;20390;-68
2021/05/31 01:06:46;;;;;;;5.63;1.63;;;16.20;61.80;;;;;;5017383;28;20025;-65
2021/05/31 01:09:32;;;;;;;4.65;1.80;;;16.30;61.30;;;;;;5017496;28;20028;-65
2021/05/31 01:12:09;;;;;;;1.98;1.48;;;16.40;61.90;;;;;;5014194;28;20255;-67
2021/05/31 01:15:06;;;;;;;6.03;2.35;;;16.60;60.60;;;;;;5017117;28;20099;-66
2021/05/31 01:17:59;;;;;;;4.18;1.88;;;16.70;60.70;;;;;;5021628;28;20017;-66
2021/05/31 01:20:44;;;;;;;4.85;1.90;;;16.90;60.00;;;;;;5020951;28;20083;-66
2021/05/31 01:23:13;;;;;;;2.63;1.70;;;17.00;59.90;;;;;;5022823;28;20025;-66
2021/05/31 01:26:16;;;;;;;6.38;2.03;;;17.10;59.40;;;;;;5019980;28;20351;-66
2021/05/31 01:28:53;;;;;;;3.28;1.83;;;17.10;57.80;;;;;;5022132;28;20045;-67
2021/05/31 01:31:53;;;;;;;4.68;1.90;;;17.40;57.30;;;;;;5021368;28;20037;-66
2021/05/31 01:34:26;;;;;;;3.47;1.95;;;17.40;56.70;;;;;;5017108;28;20113;-65
2021/05/31 01:37:17;;;;;;;13.43;11.27;;;17.50;56.50;;;;;;5018986;28;20025;-65
2021/05/31 01:39:47;;;;;;;5.25;2.22;;;17.60;55.70;;;;;;5019447;28;20014;-66
2021/05/31 01:42:14;;;;;;;3.50;1.75;;;17.60;55.90;;;;;;5020739;28;20092;-66
2021/05/31 01:44:43;;;;;;;3.63;1.65;;;17.80;54.80;;;;;;5022672;28;20033;-65
2021/05/31 01:47:11;;;;;;;3.65;2.00;;;18.00;55.10;;;;;;5021215;28;20025;-65
2021/05/31 01:49:38;;;;;;;3.05;1.63;;;18.00;54.60;;;;;;5020106;28;20088;-66
2021/05/31 01:52:10;;;;;;;5.20;1.70;;;17.90;54.90;;;;;;5031697;28;20029;-65
2021/05/31 01:54:37;;;;;;;3.95;1.60;;;18.10;54.90;;;;;;5022037;28;20121;-66
2021/05/31 01:57:06;;;;;;;2.75;2.08;;;18.30;54.00;;;;;;5029371;28;20367;-64
2021/05/31 01:59:35;;;;;;;3.65;1.52;;;18.40;53.20;;;;;;5029730;28;20014;-66
2021/05/31 02:02:03;;;;;;;3.55;1.40;;;18.50;52.90;;;;;;5028955;28;20022;-65
2021/05/31 02:04:30;;;;;;;3.22;1.60;;;18.50;53.20;;;;;;5028400;28;20016;-65
2021/05/31 02:06:57;;;;;;;3.17;2.10;;;18.60;53.40;;;;;;5028699;28;20022;-66
2021/05/31 02:09:24;;;;;;;4.95;1.75;;;18.60;52.90;;;;;;5028571;28;20021;-65
2021/05/31 02:12:01;;;;;;;4.00;1.67;;;18.60;53.80;;;;;;5028135;28;20022;-65
2021/05/31 02:14:52;;;;;;;3.40;1.77;;;18.90;52.60;;;;;;5029078;28;20034;-63
2021/05/31 02:17:28;;;;;;;3.00;1.40;;;19.00;51.90;;;;;;5029527;28;20041;-66
2021/05/31 02:20:00;;;;;;;4.65;1.38;;;19.00;51.40;;;;;;5021774;28;20136;-66
2021/05/31 02:22:30;;;;;;;2.72;1.35;;;19.00;51.80;;;;;;5027118;28;20034;-63
2021/05/31 02:24:58;;;;;;;2.03;1.40;;;19.00;52.80;;;;;;5021680;28;20561;-63
2021/05/31 02:27:25;;;;;;;2.80;0.98;;;19.20;50.90;;;;;;5028235;28;20025;-64
2021/05/31 02:29:53;;;;;;;3.67;1.48;;;19.10;50.70;;;;;;5028200;28;20049;-65
2021/05/31 02:32:19;;;;;;;4.43;1.55;;;19.00;50.70;;;;;;5027945;28;20551;-67
2021/05/31 02:34:46;;;;;;;2.22;1.30;;;19.10;50.40;;;;;;5027601;28;20075;-68
2021/05/31 02:37:15;;;;;;;3.10;1.30;;;19.00;49.90;;;;;;5027616;28;20030;-68
2021/05/31 02:39:42;;;;;;;4.90;1.42;;;19.00;50.30;;;;;;5028576;28;20451;-65
2021/05/31 02:42:09;;;;;;;4.50;1.13;;;19.00;51.50;;;;;;5027214;28;20022;-66
2021/05/31 02:44:36;;;;;;;2.13;1.02;;;18.90;50.10;;;;;;5017843;28;20052;-66
2021/05/31 02:47:03;;;;;;;3.25;1.92;;;19.00;50.80;;;;;;5027548;28;20073;-66
2021/05/31 02:49:30;;;;;;;5.53;1.50;;;19.00;51.30;;;;;;5021987;28;20097;-67
2021/05/31 02:51:57;;;;;;;5.05;1.60;;;19.10;52.30;;;;;;5027657;28;20118;-67
2021/05/31 02:54:24;;;;;;;3.83;1.80;;;19.20;52.20;;;;;;5028443;28;20021;-67
2021/05/31 02:56:50;;;;;;;4.85;1.60;;;19.30;50.60;;;;;;5030937;28;20025;-65
2021/05/31 02:59:17;;;;;;;5.20;2.30;;;19.10;51.90;;;;;;5026626;28;20017;-65
2021/05/31 03:01:44;;;;;;;3.75;2.10;;;19.10;50.90;;;;;;5027704;28;20018;-66
2021/05/31 03:04:11;;;;;;;8.43;2.30;;;19.20;52.00;;;;;;5021995;28;20029;-65
2021/05/31 03:06:38;;;;;;;5.65;2.00;;;19.20;52.90;;;;;;5027455;28;20017;-65
2021/05/31 03:09:05;;;;;;;4.05;1.73;;;19.20;52.70;;;;;;5027911;28;20091;-66
2021/05/31 03:11:32;;;;;;;3.00;1.50;;;19.20;52.40;;;;;;5027229;28;20278;-65
2021/05/31 03:13:59;;;;;;;4.78;1.75;;;19.40;52.00;;;;;;5017803;28;20103;-68
2021/05/31 03:16:26;;;;;;;5.15;2.33;;;19.50;51.30;;;;;;5025007;28;20026;-65
2021/05/31 03:18:53;;;;;;;6.45;2.20;;;19.60;52.10;;;;;;5026853;28;20386;-68
2021/05/31 03:21:20;;;;;;;4.15;1.80;;;19.60;51.90;;;;;;5026585;28;20507;-65
2021/05/31 03:23:47;;;;;;;3.03;1.63;;;19.60;51.10;;;;;;5022485;28;20026;-65
2021/05/31 03:26:14;;;;;;;6.70;1.90;;;19.70;51.40;;;;;;5024012;28;20028;-65
2021/05/31 03:28:41;;;;;;;4.47;2.05;;;19.60;49.90;;;;;;5025156;28;20336;-68
2021/05/31 03:31:08;;;;;;;5.43;2.00;;;19.60;50.50;;;;;;5029416;28;20447;-68
2021/05/31 03:33:35;;;;;;;7.05;1.70;;;19.50;50.70;;;;;;5025963;28;20080;-66
2021/05/31 03:36:02;;;;;;;7.43;2.30;;;19.40;50.40;;;;;;5024536;28;20545;-68
2021/05/31 03:38:29;;;;;;;4.35;1.90;;;19.20;50.90;;;;;;5020429;28;20450;-65
2021/05/31 03:40:56;;;;;;;5.68;2.13;;;19.20;51.30;;;;;;5026014;28;20037;-67
2021/05/31 03:43:23;;;;;;;7.30;2.33;;;19.20;51.90;;;;;;5029280;28;20267;-66
2021/05/31 03:45:50;;;;;;;4.88;1.85;;;19.10;52.80;;;;;;5035377;28;20032;-66
2021/05/31 03:48:17;;;;;;;5.00;1.90;;;19.20;53.20;;;;;;5030985;28;20029;-67
2021/05/31 03:50:44;;;;;;;4.78;2.28;;;19.30;52.60;;;;;;5027489;28;20071;-66
2021/05/31 03:53:11;;;;;;;3.35;1.70;;;19.50;51.50;;;;;;5026969;28;20029;-69
2021/05/31 03:55:38;;;;;;;3.90;1.90;;;19.60;52.00;;;;;;5027243;28;20026;-66
2021/05/31 03:58:05;;;;;;;6.10;2.13;;;19.70;52.30;;;;;;5025145;28;20059;-66
2021/05/31 04:00:32;;;;;;;4.68;2.08;;;19.70;51.00;;;;;;5025667;28;20081;-67
2021/05/31 04:02:59;;;;;;;3.80;2.15;;;19.70;49.80;;;;;;5026003;28;20026;-69
2021/05/31 04:05:30;;;;;;;6.15;2.00;;;19.70;50.70;;;;;;5024930;28;20017;-65
2021/05/31 04:13:28;;;;;;;7.20;2.08;;;19.90;51.00;;;;;;5023924;28;20056;-65
2021/05/31 04:15:55;;;;;;;3.28;1.70;;;19.90;51.70;;;;;;5025819;28;20075;-69
2021/05/31 04:18:22;;;;;;;4.45;1.60;;;19.90;51.40;;;;;;5026616;28;20079;-70
2021/05/31 04:20:49;;;;;;;3.05;1.70;;;19.90;50.80;;;;;;5026326;28;20032;-68
2021/05/31 04:23:16;;;;;;;9.32;6.05;;;19.70;51.00;;;;;;5019094;28;20017;-68
2021/05/31 04:25:43;;;;;;;8.80;3.83;;;19.80;51.30;;;;;;5019312;28;20025;-68
2021/05/31 04:28:10;;;;;;;4.35;2.08;;;19.80;51.70;;;;;;5062269;23;20053;-69
2021/05/31 04:30:37;;;;;;;6.07;2.47;;;19.80;51.00;;;;;;5025341;28;20022;-69
2021/05/31 04:33:04;;;;;;;3.55;1.88;;;19.90;50.50;;;;;;5022797;28;20040;-65
2021/05/31 04:35:31;;;;;;;4.22;2.00;;;19.80;50.50;;;;;;5024602;28;20026;-64
2021/05/31 04:37:58;;;;;;;5.57;1.92;;;19.80;50.60;;;;;;5024469;28;20036;-66
2021/05/31 04:40:27;;;;;;;5.68;2.50;;;19.90;49.80;;;;;;5025352;28;20102;-65
2021/05/31 04:42:54;;;;;;;7.28;3.50;;;20.00;50.70;;;;;;5026602;28;20033;-64
2021/05/31 04:45:21;;;;;;;4.10;1.98;;;20.00;50.20;;;;;;5025318;28;20017;-64
2021/05/31 04:47:48;;;;;;;2.80;1.35;;;20.00;50.40;;;;;;5025990;28;20338;-66
2021/05/31 04:50:15;;;;;;;6.68;1.65;;;20.00;49.80;;;;;;5026757;28;20068;-65
2021/05/31 04:52:42;;;;;;;4.28;1.77;;;20.00;49.60;;;;;;5026080;28;20029;-64
2021/05/31 04:55:15;;;;;;;6.20;3.80;;;19.80;50.20;;;;;;5026942;28;20179;-65
2021/05/31 04:57:44;;;;;;;3.30;1.70;;;19.70;51.10;;;;;;5019403;28;20065;-65
2021/05/31 05:00:12;;;;;;;7.07;2.75;;;19.80;50.60;;;;;;5026116;28;20033;-69
2021/05/31 05:02:39;;;;;;;3.53;1.52;;;19.80;51.50;;;;;;5026231;28;20029;-65
2021/05/31 05:05:06;;;;;;;4.00;1.80;;;19.80;50.50;;;;;;5026931;28;20515;-67
2021/05/31 05:07:33;;;;;;;3.08;1.60;;;19.90;51.10;;;;;;5026070;28;20017;-66
2021/05/31 05:10:00;;;;;;;2.75;1.35;;;20.00;50.50;;;;;;5026414;28;20014;-67
2021/05/31 05:12:27;;;;;;;4.68;1.70;;;20.10;50.30;;;;;;5024714;28;20478;-69
2021/05/31 05:14:54;;;;;;;3.45;1.58;;;20.30;49.70;;;;;;5025805;28;20393;-65
2021/05/31 05:17:21;;;;;;;3.63;1.48;;;20.60;48.60;;;;;;5024264;28;20038;-67
2021/05/31 05:19:48;;;;;;;4.22;1.50;;;20.80;48.30;;;;;;5026271;28;20026;-65
2021/05/31 05:22:15;;;;;;;4.05;1.48;;;20.90;47.80;;;;;;5027983;28;20036;-67
2021/05/31 05:24:42;;;;;;;3.97;1.77;;;21.10;48.00;;;;;;5027605;28;20053;-65
2021/05/31 05:27:09;;;;;;;4.35;2.03;;;21.10;47.10;;;;;;5026951;28;20018;-69
2021/05/31 05:29:36;;;;;;;4.68;1.65;;;21.10;47.40;;;;;;5025756;28;20048;-73
2021/05/31 05:32:03;;;;;;;4.10;1.45;;;21.20;46.50;;;;;;5029478;28;20021;-70
2021/05/31 05:34:30;;;;;;;4.13;1.30;;;21.40;46.00;;;;;;5027092;28;20071;-67
2021/05/31 05:37:09;;;;;;;6.55;1.63;;;21.30;46.50;;;;;;5031571;28;20017;-65
2021/05/31 05:47:43;;;;;;;3.60;1.33;;;21.20;46.40;;;;;;5027540;28;20553;-66
2021/05/31 05:50:19;;;;;;;3.35;1.02;;;20.50;47.60;;;;;;5023061;28;20103;-67
2021/05/31 05:52:48;;;;;;;2.25;1.10;;;19.80;49.40;;;;;;5025547;28;20103;-69
2021/05/31 05:55:16;;;;;;;4.20;2.05;;;19.30;50.60;;;;;;5022601;28;20478;-67
2021/05/31 05:57:43;;;;;;;3.70;1.45;;;18.70;52.70;;;;;;5025578;28;20477;-69
2021/05/31 06:00:26;;;;;;;2.38;1.10;;;18.30;53.00;;;;;;5024630;28;20025;-66
2021/05/31 06:02:54;;;;;;;4.20;1.52;;;18.20;54.00;;;;;;5030645;28;20162;-69
2021/05/31 06:05:21;;;;;;;4.85;1.40;;;17.90;54.90;;;;;;5028699;28;20091;-69
2021/05/31 06:07:49;;;;;;;2.60;1.50;;;17.60;55.40;;;;;;5031364;28;20037;-66
2021/05/31 06:10:17;;;;;;;3.05;1.30;;;17.40;56.30;;;;;;5028995;28;20116;-66
2021/05/31 06:12:44;;;;;;;2.00;1.05;;;17.30;56.90;;;;;;5028380;28;20025;-71
2021/05/31 06:15:15;;;;;;;2.78;1.13;;;17.30;56.50;;;;;;5024984;28;20516;-65
2021/05/31 06:17:42;;;;;;;4.45;1.40;;;17.40;58.00;;;;;;5029792;28;20052;-64
2021/05/31 06:20:10;;;;;;;2.80;1.10;;;17.40;57.40;;;;;;5029763;28;20025;-65
2021/05/31 06:22:40;;;;;;;5.03;1.40;;;17.60;56.60;;;;;;5029992;28;20033;-65
2021/05/31 06:25:12;;;;;;;5.22;1.80;;;17.60;57.20;;;;;;5029858;28;20033;-64
2021/05/31 06:27:40;;;;;;;4.00;1.35;;;17.50;58.60;;;;;;5027631;28;20045;-65
2021/05/31 06:30:08;;;;;;;4.68;1.35;;;17.40;59.30;;;;;;5032327;28;20215;-75
2021/05/31 06:32:35;;;;;;;3.10;1.65;;;17.20;59.60;;;;;;5029246;28;20033;-65
2021/05/31 06:35:02;;;;;;;5.22;1.60;;;17.00;60.00;;;;;;5029821;28;20017;-70
2021/05/31 06:37:31;;;;;;;3.50;1.50;;;16.80;60.40;;;;;;5028918;28;20111;-64
2021/05/31 06:39:59;;;;;;;3.88;1.77;;;16.60;61.20;;;;;;5030388;28;20351;-65
2021/05/31 06:42:26;;;;;;;9.07;1.85;;;16.40;62.30;;;;;;5028117;28;21554;-64
2021/05/31 06:44:53;;;;;;;5.28;1.70;;;16.30;63.60;;;;;;5029219;28;20511;-63
2021/05/31 06:47:20;;;;;;;4.38;1.75;;;16.20;64.40;;;;;;5030440;28;20060;-73
2021/05/31 06:49:47;;;;;;;5.00;1.98;;;16.00;64.60;;;;;;5029371;28;20152;-65
2021/05/31 06:52:14;;;;;;;5.35;1.75;;;15.90;65.30;;;;;;5025193;28;20029;-64
2021/05/31 06:54:41;;;;;;;3.03;1.30;;;15.60;65.60;;;;;;5029072;28;20040;-72
2021/05/31 06:57:08;;;;;;;3.25;1.33;;;15.30;66.30;;;;;;5028893;28;20024;-73
2021/05/31 06:59:35;;;;;;;4.30;1.50;;;15.00;67.90;;;;;;5027022;28;20060;-74
2021/05/31 07:02:02;;;;;;;3.22;1.42;;;14.80;69.30;;;;;;5029116;28;20355;-65
2021/05/31 07:04:29;;;;;;;7.40;2.70;;;14.70;69.70;;;;;;5030175;28;20030;-64
2021/05/31 07:06:56;;;;;;;8.95;3.88;;;14.60;70.00;;;;;;5026115;28;20462;-63
2021/05/31 07:09:23;;;;;;;6.28;2.92;;;14.50;71.00;;;;;;5028760;28;20025;-63
2021/05/31 07:11:50;;;;;;;4.07;2.47;;;14.40;71.20;;;;;;5028904;28;20428;-67
2021/05/31 07:14:19;;;;;;;6.35;2.33;;;14.30;73.30;;;;;;5029071;28;20025;-65
2021/05/31 07:16:50;;;;;;;5.82;2.90;;;14.30;72.00;;;;;;5028901;28;20616;-67
2021/05/31 07:19:17;;;;;;;11.38;3.20;;;14.20;71.80;;;;;;5027478;28;20021;-64
2021/05/31 07:21:44;;;;;;;5.57;2.70;;;14.10;72.20;;;;;;5028153;28;20017;-70
2021/05/31 07:24:11;;;;;;;5.60;3.58;;;14.00;72.60;;;;;;5027986;28;20138;-64
2021/05/31 07:26:38;;;;;;;7.00;2.78;;;13.90;72.90;;;;;;5029952;28;20025;-68
2021/05/31 07:29:05;;;;;;;8.50;3.53;;;13.90;73.40;;;;;;5030278;28;20541;-67
2021/05/31 07:31:33;;;;;;;5.40;2.53;;;13.70;74.80;;;;;;5027260;28;20426;-72
2021/05/31 07:34:00;;;;;;;4.80;2.20;;;13.60;77.10;;;;;;5029625;28;20048;-70
2021/05/31 07:36:27;;;;;;;7.45;3.15;;;13.60;77.10;;;;;;5024834;28;20651;-70
2021/05/31 07:38:54;;;;;;;5.78;2.50;;;13.50;76.30;;;;;;5027001;28;20029;-72
2021/05/31 07:41:22;;;;;;;5.00;2.28;;;13.40;77.40;;;;;;5026161;28;20124;-65
2021/05/31 07:43:49;;;;;;;5.70;2.50;;;13.30;77.50;;;;;;5024964;28;20025;-67
2021/05/31 07:46:16;;;;;;;3.85;1.98;;;13.30;79.00;;;;;;5021641;28;20021;-70
2021/05/31 07:48:45;;;;;;;7.05;2.33;;;13.20;78.10;;;;;;5022504;28;20028;-67
2021/05/31 07:51:19;;;;;;;4.57;2.72;;;13.20;80.00;;;;;;5026590;28;20028;-68
2021/05/31 07:53:53;;;;;;;5.45;3.05;;;13.30;79.90;;;;;;5026740;28;20351;-65
2021/05/31 07:56:25;;;;;;;5.68;2.40;;;13.10;79.20;;;;;;5026253;28;20029;-69
2021/05/31 07:58:53;;;;;;;7.72;3.42;;;13.10;80.50;;;;;;5026993;28;20116;-69
2021/05/31 08:01:21;;;;;;;4.07;2.70;;;13.10;80.00;;;;;;5026186;28;20029;-69
2021/05/31 08:03:48;;;;;;;5.80;2.60;;;13.10;79.90;;;;;;5025254;28;20335;-64
2021/05/31 08:06:15;;;;;;;6.47;3.20;;;13.10;80.20;;;;;;5027079;28;20017;-68
2021/05/31 08:08:43;;;;;;;6.10;2.72;;;13.00;80.50;;;;;;5028646;28;20013;-66
2021/05/31 08:11:11;;;;;;;7.30;2.80;;;13.00;80.20;;;;;;5024563;28;20041;-65
2021/05/31 08:13:39;;;;;;;6.22;3.28;;;12.90;81.20;;;;;;5023975;28;20449;-68
2021/05/31 08:16:08;;;;;;;6.07;4.43;;;12.80;80.70;;;;;;5022783;28;20047;-68
2021/05/31 08:18:35;;;;;;;6.68;2.92;;;12.80;81.20;;;;;;5024429;28;20029;-66
2021/05/31 08:21:03;;;;;;;5.70;3.00;;;12.80;81.90;;;;;;5034478;28;20021;-69
2021/05/31 08:23:30;;;;;;;9.35;2.97;;;12.60;80.50;;;;;;5024734;28;20029;-71
2021/05/31 08:25:57;;;;;;;4.72;2.70;;;12.50;80.20;;;;;;5024086;28;20793;-64
2021/05/31 08:28:24;;;;;;;5.70;2.75;;;12.30;81.00;;;;;;5026617;28;20038;-68
2021/05/31 08:30:51;;;;;;;7.45;3.00;;;12.20;81.60;;;;;;5023915;28;20029;-70
2021/05/31 08:33:18;;;;;;;11.75;2.88;;;12.00;82.60;;;;;;5022554;28;20067;-68
2021/05/31 08:35:46;;;;;;;11.20;2.85;;;12.00;83.20;;;;;;5024211;28;20122;-68
2021/05/31 08:38:13;;;;;;;9.05;2.72;;;12.10;83.60;;;;;;5022708;28;20110;-69
2021/05/31 08:40:41;;;;;;;6.80;2.50;;;12.10;83.60;;;;;;5023913;28;20512;-68
2021/05/31 08:43:08;;;;;;;6.20;2.65;;;11.90;83.40;;;;;;5024860;28;20029;-68
2021/05/31 08:45:37;;;;;;;7.13;2.70;;;11.90;83.50;;;;;;5023983;28;20052;-69
2021/05/31 08:48:09;;;;;;;7.25;3.08;;;11.80;83.40;;;;;;5022634;28;20072;-70
2021/05/31 08:50:38;;;;;;;5.78;3.10;;;11.80;84.30;;;;;;5024241;28;20053;-69
2021/05/31 08:53:06;;;;;;;7.13;3.17;;;11.80;84.40;;;;;;5025001;28;20285;-69
2021/05/31 08:55:33;;;;;;;6.95;3.25;;;11.70;85.50;;;;;;5023111;28;20079;-70
2021/05/31 08:58:01;;;;;;;8.23;2.58;;;11.70;84.90;;;;;;5024114;28;20560;-69
2021/05/31 09:00:31;;;;;;;8.43;3.50;;;11.60;85.30;;;;;;5025440;28;20025;-69
2021/05/31 09:03:09;;;;;;;8.05;3.15;;;11.60;85.70;;;;;;5025199;28;20088;-65
2021/05/31 09:05:41;;;;;;;6.70;3.03;;;11.50;86.20;;;;;;5025192;28;20053;-69
2021/05/31 09:08:12;;;;;;;7.75;3.50;;;11.50;86.30;;;;;;5024308;28;20048;-67
2021/05/31 09:10:45;;;;;;;10.63;3.08;;;11.50;88.10;;;;;;5007545;28;20473;-69
2021/05/31 09:13:37;;;;;;;9.80;3.42;;;11.40;87.50;;;;;;5020539;28;20779;-67
2021/05/31 09:16:13;;;;;;;8.38;3.20;;;11.30;87.70;;;;;;5020159;28;20033;-72
2021/05/31 09:18:51;;;;;;;9.43;3.60;;;11.30;88.20;;;;;;5018201;28;20312;-67
2021/05/31 09:21:39;;;;;;;7.70;3.45;;;11.30;88.70;;;;;;5019800;28;20022;-66
2021/05/31 09:24:18;;;;;;;9.15;3.30;;;11.20;88.70;;;;;;5019453;28;20448;-69
2021/05/31 09:26:53;;;;;;;8.00;3.30;;;11.10;89.10;;;;;;5024007;28;20040;-68
2021/05/31 09:29:21;;;;;;;11.43;3.38;;;11.10;90.00;;;;;;5019404;28;20042;-68
2021/05/31 09:32:07;;;;;;;9.73;4.15;;;11.00;90.20;;;;;;5020445;28;20401;-70
2021/05/31 09:34:35;;;;;;;9.38;4.10;;;11.10;90.40;;;;;;5019134;28;20040;-67
2021/05/31 09:37:04;;;;;;;11.32;4.05;;;11.10;90.30;;;;;;5021862;28;20032;-69
2021/05/31 09:39:37;;;;;;;11.88;4.05;;;11.10;90.40;;;;;;5031742;28;20033;-71
2021/05/31 09:42:14;;;;;;;9.35;4.30;;;11.00;90.40;;;;;;5032705;28;20369;-68
2021/05/31 09:44:42;;;;;;;11.38;3.78;;;10.90;90.40;;;;;;5020679;28;20033;-68
2021/05/31 09:47:09;;;;;;;6.63;4.13;;;10.80;90.70;;;;;;5027294;28;20025;-74
2021/05/31 09:49:40;;;;;;;13.80;3.45;;;10.70;90.80;;;;;;5022153;28;20022;-66
2021/05/31 09:52:17;;;;;;;9.25;3.33;;;10.60;90.90;;;;;;5023421;28;20889;-65
2021/05/31 09:54:47;;;;;;;10.35;3.78;;;10.70;91.10;;;;;;5023333;28;20040;-69
2021/05/31 09:57:36;;;;;;;6.78;3.30;;;10.70;91.20;;;;;;5029901;28;20033;-67
2021/05/31 10:00:19;;;;;;;14.32;3.42;;;10.70;91.00;;;;;;5016632;28;20540;-70
2021/05/31 10:02:57;;;;;;;;;;;10.60;91.10;;;;;;5022001;28;20235;-67
2021/05/31 10:10:46;;;;;;;10.85;4.00;;;10.60;91.90;;;;;;5024529;28;20040;-66
2021/05/31 10:13:13;;;;;;;8.57;3.55;;;10.60;91.60;;;;;;5022263;28;20033;-73
2021/05/31 10:15:41;;;;;;;8.68;3.70;;;10.60;91.60;;;;;;5020887;28;20079;-68
2021/05/31 10:18:16;;;;;;;10.77;3.13;;;10.50;91.80;;;;;;5023347;28;20474;-69
2021/05/31 10:20:45;;;;;;;9.23;3.65;;;10.40;91.80;;;;;;5014817;28;20128;-75
2021/05/31 10:23:13;;;;;;;8.57;3.30;;;10.40;91.90;;;;;;5022100;28;20516;-72
2021/05/31 10:25:45;;;;;;;12.73;4.03;;;10.40;92.00;;;;;;5019663;28;20370;-68
2021/05/31 10:28:36;;;;;;;10.87;4.07;;;10.30;92.00;;;;;;5016392;28;20044;-72
2021/05/31 10:31:05;;;;;;;11.73;4.47;;;10.30;92.10;;;;;;5025988;28;20030;-67
2021/05/31 10:33:38;;;;;;;10.57;3.45;;;10.30;92.50;;;;;;5028838;28;20029;-72
2021/05/31 10:36:18;;;;;;;25.27;15.32;;;10.20;92.50;;;;;;5021600;28;20057;-66
2021/05/31 10:38:50;;;;;;;11.38;5.85;;;10.20;92.50;;;;;;5023946;28;20018;-67
2021/05/31 10:41:23;;;;;;;6.88;4.63;;;10.10;92.40;;;;;;5027160;28;20057;-66
2021/05/31 10:44:00;;;;;;;7.60;3.42;;;10.00;92.40;;;;;;5031075;28;20164;-69
2021/05/31 10:46:34;;;;;;;7.80;3.35;;;10.10;92.40;;;;;;5025036;28;20321;-66
2021/05/31 10:49:05;;;;;;;14.95;3.33;;;10.00;92.70;;;;;;5019933;28;20068;-68
2021/05/31 10:51:38;;;;;;;10.38;4.10;;;9.90;93.00;;;;;;5028608;28;20032;-66
2021/05/31 10:54:09;;;;;;;9.27;3.10;;;9.90;93.20;;;;;;5024732;28;20438;-65
2021/05/31 10:56:36;;;;;;;8.90;4.50;;;9.80;93.30;;;;;;5021261;28;20049;-70
2021/05/31 10:59:04;;;;;;;9.75;4.18;;;9.70;93.40;;;;;;5021193;28;20033;-66
2021/05/31 11:01:40;;;;;;;8.95;4.00;;;9.70;94.10;;;;;;5028572;28;20382;-68
2021/05/31 11:04:19;;;;;;;9.70;4.80;;;9.70;93.80;;;;;;5023967;28;20037;-70
2021/05/31 11:06:49;;;;;;;9.27;3.67;;;9.60;93.30;;;;;;5022926;28;20104;-69
2021/05/31 11:09:29;;;;;;;8.30;4.97;;;9.60;93.40;;;;;;5021772;28;20116;-67
2021/05/31 11:12:00;;;;;;;10.73;3.83;;;9.50;93.00;;;;;;5033064;28;20029;-65
2021/05/31 11:14:33;;;;;;;13.18;6.22;;;9.50;93.10;;;;;;5018611;28;20064;-66
2021/05/31 11:17:11;;;;;;;9.85;5.10;;;9.40;93.10;;;;;;5026682;28;20079;-66
2021/05/31 11:19:44;;;;;;;19.05;8.32;;;9.40;93.40;;;;;;5021771;28;20040;-65
2021/05/31 11:22:13;;;;;;;;;;;9.40;93.40;;;;;;5015348;28;20013;-70
2021/05/31 11:24:41;;;;;;;10.15;4.35;;;9.40;93.30;;;;;;5020421;28;20302;-68
2021/05/31 11:27:11;;;;;;;13.52;4.43;;;9.30;93.40;;;;;;5025623;28;20044;-66
2021/05/31 11:29:41;;;;;;;19.58;5.28;;;9.30;93.40;;;;;;5021283;28;20128;-70
2021/05/31 11:32:10;;;;;;;18.80;5.60;;;9.30;93.60;;;;;;5016623;28;20116;-67
2021/05/31 11:34:38;;;;;;;20.98;5.15;;;9.30;93.80;;;;;;5021092;28;20461;-67
2021/05/31 11:37:05;;;;;;;28.83;5.63;;;9.30;93.60;;;;;;5023550;28;20311;-66
2021/05/31 11:39:33;;;;;;;18.55;4.82;;;9.20;93.70;;;;;;5022274;28;20036;-71
2021/05/31 11:42:00;;;;;;;17.40;4.68;;;9.20;93.80;;;;;;5030660;28;20413;-69
2021/05/31 11:44:30;;;;;;;27.67;5.78;;;9.10;93.70;;;;;;5024807;28;20057;-67
2021/05/31 11:47:06;;;;;;;22.52;5.95;;;9.00;93.70;;;;;;5025587;28;20033;-68
2021/05/31 11:49:39;;;;;;;20.70;5.82;;;9.00;93.90;;;;;;5024776;28;20136;-69
2021/05/31 11:52:07;;;;;;;25.30;5.90;;;8.90;94.20;;;;;;5029198;28;20067;-68
2021/05/31 11:54:36;;;;;;;24.10;5.57;;;8.90;94.20;;;;;;5029781;28;20049;-67
2021/05/31 11:57:09;;;;;;;40.10;8.13;;;8.80;94.30;;;;;;5023626;28;20022;-67
2021/05/31 11:59:42;;;;;;;14.38;6.20;;;8.80;94.60;;;;;;5024266;28;20111;-67
2021/05/31 12:02:16;;;;;;;26.30;5.45;;;8.80;94.30;;;;;;5023266;28;20026;-66
2021/05/31 12:04:53;;;;;;;35.80;6.75;;;8.80;94.30;;;;;;5026513;28;20041;-70
2021/05/31 12:07:24;;;;;;;26.48;6.47;;;8.70;94.50;;;;;;5024651;28;20030;-70
2021/05/31 12:09:53;;;;;;;28.17;7.22;;;8.70;94.60;;;;;;5022225;28;20342;-70
2021/05/31 12:12:25;;;;;;;23.27;6.38;;;8.70;95.00;;;;;;5024197;28;20382;-66
2021/05/31 12:14:57;;;;;;;25.73;6.53;;;8.70;95.20;;;;;;5026303;28;20022;-69
2021/05/31 12:17:29;;;;;;;26.75;6.93;;;8.90;95.00;;;;;;5025507;28;20056;-67
2021/05/31 12:19:57;;;;;;;28.95;12.43;;;8.90;94.60;;;;;;5030156;28;20653;-70
2021/05/31 12:22:29;;;;;;;62.75;41.35;;;8.80;94.20;;;;;;5025130;28;20029;-67
2021/05/31 12:24:59;;;;;;;36.38;23.25;;;8.80;94.20;;;;;;5024113;28;20025;-68
2021/05/31 12:27:30;;;;;;;36.78;13.85;;;8.70;94.20;;;;;;5016799;28;20025;-66
2021/05/31 12:29:57;;;;;;;21.20;9.98;;;8.70;94.40;;;;;;5017597;28;20124;-70
2021/05/31 12:32:27;;;;;;;20.27;7.03;;;8.70;94.30;;;;;;5023195;28;20423;-68
2021/05/31 12:34:55;;;;;;;19.02;5.72;;;8.70;94.40;;;;;;5025399;28;20052;-69
2021/05/31 12:37:32;;;;;;;17.70;6.90;;;8.70;94.30;;;;;;5024063;28;20028;-67
2021/05/31 12:40:05;;;;;;;20.35;6.55;;;8.80;94.10;;;;;;5021773;28;20155;-67
2021/05/31 12:42:34;;;;;;;15.75;6.47;;;8.70;94.40;;;;;;5024224;28;20109;-67
2021/05/31 12:45:03;;;;;;;15.07;6.45;;;8.80;94.20;;;;;;5024361;28;20037;-69
2021/05/31 12:47:36;;;;;;;19.52;5.50;;;8.80;94.00;;;;;;5022495;28;20021;-70
2021/05/31 12:50:05;;;;;;;;;;;8.80;93.90;;;;;;5025575;28;20472;-68
2021/05/31 12:52:36;;;;;;;21.42;6.25;;;8.80;93.90;;;;;;5032018;28;20027;-66
2021/05/31 12:55:10;;;;;;;13.27;5.47;;;8.90;93.90;;;;;;5030845;28;20025;-65
2021/05/31 12:57:39;;;;;;;16.38;6.07;;;8.90;93.80;;;;;;5024073;28;20322;-67
2021/05/31 13:00:11;;;;;;;15.80;5.97;;;8.80;93.80;;;;;;5025015;28;20034;-70
2021/05/31 13:02:50;;;;;;;9.68;5.63;;;8.90;93.80;;;;;;5018438;28;20018;-67
2021/05/31 13:05:20;;;;;;;16.27;5.53;;;8.80;93.80;;;;;;5029772;28;20115;-67
2021/05/31 13:07:49;;;;;;;10.35;5.75;;;8.80;93.60;;;;;;5025011;28;20033;-67
2021/05/31 13:10:25;;;;;;;10.93;5.50;;;8.80;93.80;;;;;;5028249;28;20081;-70
2021/05/31 13:13:06;;;;;;;14.13;6.55;;;8.70;93.80;;;;;;5024966;28;20072;-70
2021/05/31 13:15:38;;;;;;;19.52;6.15;;;8.70;93.70;;;;;;5023392;28;20536;-68
2021/05/31 13:18:19;;;;;;;13.48;5.68;;;8.70;93.70;;;;;;5017549;28;20504;-68
2021/05/31 13:21:06;;;;;;;11.07;6.50;;;8.70;93.90;;;;;;5024965;28;20022;-68